sensor_id;sensor_type;location;lat;lon;timestamp;pressure;altitude;pressure_sealevel;temperature;humidity
58955;BME280;45815;52.334;5.024;2024-03-07T00:00:12;102711.16;;;5.79;100.00
58955;BME280;45815;52.334;5.024;2024-03-07T00:02:49;102714.88;;;5.82;100.00
58955;BME280;45815;52.334;5.024;2024-03-07T00:05:15;102715.88;;;5.84;100.00
58955;BME280;45815;52.334;5.024;2024-03-07T00:07:41;102714.09;;;5.83;100.00
58955;BME280;45815;52.334;5.024;2024-03-07T00:10:07;102720.00;;;5.81;100.00
58955;BME280;45815;52.334;5.024;2024-03-07T00:12:34;102716.25;;;5.77;100.00
58955;BME280;45815;52.334;5.024;2024-03-07T00:15:01;102715.16;;;5.74;100.00
58955;BME280;45815;52.334;5.024;2024-03-07T00:17:27;102710.53;;;5.69;100.00
58955;BME280;45815;52.334;5.024;2024-03-07T00:19:52;102721.97;;;5.71;100.00
58955;BME280;45815;52.334;5.024;2024-03-07T00:22:18;102717.53;;;5.70;100.00
58955;BME280;45815;52.334;5.024;2024-03-07T00:24:43;102728.84;;;5.71;100.00
58955;BME280;45815;52.334;5.024;2024-03-07T00:27:12;102717.53;;;5.70;100.00
58955;BME280;45815;52.334;5.024;2024-03-07T00:29:40;102717.53;;;5.70;100.00
58955;BME280;45815;52.334;5.024;2024-03-07T00:32:05;102715.81;;;5.71;100.00
58955;BME280;45815;52.334;5.024;2024-03-07T00:34:30;102708.72;;;5.68;100.00
58955;BME280;45815;52.334;5.024;2024-03-07T00:36:56;102716.44;;;5.67;100.00
58955;BME280;45815;52.334;5.024;2024-03-07T00:39:24;102721.66;;;5.67;100.00
58955;BME280;45815;52.334;5.024;2024-03-07T00:41:49;102716.63;;;5.70;100.00
58955;BME280;45815;52.334;5.024;2024-03-07T00:44:15;102710.72;;;5.72;100.00
58955;BME280;45815;52.334;5.024;2024-03-07T00:46:41;102714.25;;;5.73;100.00
58955;BME280;45815;52.334;5.024;2024-03-07T00:49:07;102708.94;;;5.71;100.00
58955;BME280;45815;52.334;5.024;2024-03-07T00:51:32;102711.44;;;5.70;100.00
58955;BME280;45815;52.334;5.024;2024-03-07T00:53:58;102708.63;;;5.67;100.00
58955;BME280;45815;52.334;5.024;2024-03-07T00:56:23;102706.09;;;5.68;100.00
58955;BME280;45815;52.334;5.024;2024-03-07T00:58:49;102713.13;;;5.69;100.00
58955;BME280;45815;52.334;5.024;2024-03-07T01:01:14;102705.31;;;5.69;100.00
58955;BME280;45815;52.334;5.024;2024-03-07T01:03:41;102708.00;;;5.71;100.00
58955;BME280;45815;52.334;5.024;2024-03-07T01:06:06;102701.00;;;5.70;100.00
58955;BME280;45815;52.334;5.024;2024-03-07T01:08:35;102704.44;;;5.69;100.00
58955;BME280;45815;52.334;5.024;2024-03-07T01:11:02;102691.97;;;5.65;100.00
58955;BME280;45815;52.334;5.024;2024-03-07T01:13:40;102699.22;;;5.69;100.00
58955;BME280;45815;52.334;5.024;2024-03-07T01:16:06;102697.59;;;5.71;100.00
58955;BME280;45815;52.334;5.024;2024-03-07T01:18:32;102697.81;;;5.74;100.00
58955;BME280;45815;52.334;5.024;2024-03-07T01:21:01;102704.81;;;5.75;100.00
58955;BME280;45815;52.334;5.024;2024-03-07T01:23:27;102698.72;;;5.75;100.00
58955;BME280;45815;52.334;5.024;2024-03-07T01:25:55;102700.50;;;5.76;100.00
58955;BME280;45815;52.334;5.024;2024-03-07T01:28:22;102695.31;;;5.76;100.00
58955;BME280;45815;52.334;5.024;2024-03-07T01:30:48;102690.09;;;5.76;100.00
58955;BME280;45815;52.334;5.024;2024-03-07T01:33:13;102690.91;;;5.75;100.00
58955;BME280;45815;52.334;5.024;2024-03-07T01:35:39;102692.63;;;5.74;100.00
58955;BME280;45815;52.334;5.024;2024-03-07T01:38:04;102684.47;;;5.69;100.00
58955;BME280;45815;52.334;5.024;2024-03-07T01:40:30;102691.59;;;5.72;100.00
58955;BME280;45815;52.334;5.024;2024-03-07T01:42:55;102670.81;;;5.60;100.00
58955;BME280;45815;52.334;5.024;2024-03-07T01:45:21;102690.72;;;5.71;100.00
58955;BME280;45815;52.334;5.024;2024-03-07T01:47:47;102687.28;;;5.72;100.00
58955;BME280;45815;52.334;5.024;2024-03-07T01:50:12;102685.38;;;5.70;100.00
58955;BME280;45815;52.334;5.024;2024-03-07T01:52:40;102691.72;;;5.74;100.00
58955;BME280;45815;52.334;5.024;2024-03-07T01:55:07;102689.00;;;5.72;100.00
58955;BME280;45815;52.334;5.024;2024-03-07T01:57:32;102685.69;;;5.75;100.00
58955;BME280;45815;52.334;5.024;2024-03-07T01:59:59;102690.31;;;5.79;100.00
58955;BME280;45815;52.334;5.024;2024-03-07T02:02:25;102685.09;;;5.79;100.00
58955;BME280;45815;52.334;5.024;2024-03-07T02:04:51;102693.00;;;5.80;100.00
58955;BME280;45815;52.334;5.024;2024-03-07T02:07:16;102692.13;;;5.80;100.00
58955;BME280;45815;52.334;5.024;2024-03-07T02:09:42;102683.53;;;5.81;100.00
58955;BME280;45815;52.334;5.024;2024-03-07T02:12:07;102683.53;;;5.81;100.00
58955;BME280;45815;52.334;5.024;2024-03-07T02:14:34;102682.69;;;5.82;100.00
58955;BME280;45815;52.334;5.024;2024-03-07T02:16:59;102668.94;;;5.71;100.00
58955;BME280;45815;52.334;5.024;2024-03-07T02:19:25;102680.28;;;5.85;100.00
58955;BME280;45815;52.334;5.024;2024-03-07T02:21:51;102675.91;;;5.84;100.00
58955;BME280;45815;52.334;5.024;2024-03-07T02:24:16;102679.50;;;5.86;100.00
58955;BME280;45815;52.334;5.024;2024-03-07T02:26:42;102677.81;;;5.86;100.00
58955;BME280;45815;52.334;5.024;2024-03-07T02:29:07;102672.59;;;5.86;100.00
58955;BME280;45815;52.334;5.024;2024-03-07T02:31:33;102680.53;;;5.88;100.00
58955;BME280;45815;52.334;5.024;2024-03-07T02:34:05;102670.09;;;5.88;100.00
58955;BME280;45815;52.334;5.024;2024-03-07T02:36:33;102678.69;;;5.87;100.00
58955;BME280;45815;52.334;5.024;2024-03-07T02:38:59;102679.50;;;5.86;100.00
58955;BME280;45815;52.334;5.024;2024-03-07T02:41:25;102684.16;;;5.90;100.00
58955;BME280;45815;52.334;5.024;2024-03-07T02:43:51;102678.13;;;5.91;100.00
58955;BME280;45815;52.334;5.024;2024-03-07T02:46:17;102678.22;;;5.92;100.00
58955;BME280;45815;52.334;5.024;2024-03-07T02:48:43;102673.13;;;5.94;100.00
58955;BME280;45815;52.334;5.024;2024-03-07T02:51:09;102675.97;;;5.97;100.00
58955;BME280;45815;52.334;5.024;2024-03-07T02:53:34;102669.94;;;5.98;100.00
58955;BME280;45815;52.334;5.024;2024-03-07T02:56:00;102673.38;;;5.97;100.00
58955;BME280;45815;52.334;5.024;2024-03-07T02:58:25;102662.81;;;5.96;100.00
58955;BME280;45815;52.334;5.024;2024-03-07T03:00:58;102665.31;;;5.94;100.00
58955;BME280;45815;52.334;5.024;2024-03-07T03:03:28;102652.41;;;5.96;100.00
58955;BME280;45815;52.334;5.024;2024-03-07T03:05:57;102659.16;;;5.93;100.00
58955;BME280;45815;52.334;5.024;2024-03-07T03:08:23;102640.38;;;5.98;100.00
58955;BME280;45815;52.334;5.024;2024-03-07T03:10:49;102642.09;;;5.97;100.00
58955;BME280;45815;52.334;5.024;2024-03-07T03:13:17;102644.47;;;5.94;100.00
58955;BME280;45815;52.334;5.024;2024-03-07T03:15:42;102641.06;;;5.95;100.00
58955;BME280;45815;52.334;5.024;2024-03-07T03:18:08;102639.25;;;5.94;100.00
58955;BME280;45815;52.334;5.024;2024-03-07T03:20:35;102643.41;;;5.92;100.00
58955;BME280;45815;52.334;5.024;2024-03-07T03:23:04;102649.69;;;5.94;100.00
58955;BME280;45815;52.334;5.024;2024-03-07T03:25:31;102642.88;;;5.96;100.00
58955;BME280;45815;52.334;5.024;2024-03-07T03:28:04;102634.25;;;5.97;100.00
58955;BME280;45815;52.334;5.024;2024-03-07T03:30:29;102636.06;;;5.98;100.00
58955;BME280;45815;52.334;5.024;2024-03-07T03:32:55;102638.56;;;5.97;100.00
58955;BME280;45815;52.334;5.024;2024-03-07T03:35:20;102635.88;;;5.95;100.00
58955;BME280;45815;52.334;5.024;2024-03-07T03:37:46;102635.72;;;5.93;100.00
58955;BME280;45815;52.334;5.024;2024-03-07T03:40:12;102627.59;;;5.89;100.00
58955;BME280;45815;52.334;5.024;2024-03-07T03:42:41;102630.19;;;5.89;100.00
58955;BME280;45815;52.334;5.024;2024-03-07T03:45:08;102629.31;;;5.88;100.00
58955;BME280;45815;52.334;5.024;2024-03-07T03:47:35;102616.84;;;5.84;100.00
58955;BME280;45815;52.334;5.024;2024-03-07T03:50:11;102634.66;;;5.78;100.00
58955;BME280;45815;52.334;5.024;2024-03-07T03:52:37;102618.06;;;5.76;100.00
58955;BME280;45815;52.334;5.024;2024-03-07T03:55:06;102619.84;;;5.77;100.00
58955;BME280;45815;52.334;5.024;2024-03-07T03:57:32;102627.56;;;5.76;100.00
58955;BME280;45815;52.334;5.024;2024-03-07T03:59:59;102627.38;;;5.72;100.00
58955;BME280;45815;52.334;5.024;2024-03-07T04:02:25;102621.13;;;5.70;100.00
58955;BME280;45815;52.334;5.024;2024-03-07T04:04:53;102621.97;;;5.69;100.00
58955;BME280;45815;52.334;5.024;2024-03-07T04:07:19;102623.66;;;5.69;100.00
58955;BME280;45815;52.334;5.024;2024-03-07T04:09:45;102623.66;;;5.69;100.00
58955;BME280;45815;52.334;5.024;2024-03-07T04:12:11;102621.06;;;5.69;100.00
58955;BME280;45815;52.334;5.024;2024-03-07T04:14:40;102605.44;;;5.69;100.00
58955;BME280;45815;52.334;5.024;2024-03-07T04:17:10;102617.53;;;5.68;100.00
58955;BME280;45815;52.334;5.024;2024-03-07T04:19:40;102620.34;;;5.71;100.00
58955;BME280;45815;52.334;5.024;2024-03-07T04:22:05;102617.75;;;5.71;100.00
58955;BME280;45815;52.334;5.024;2024-03-07T04:24:31;102609.94;;;5.71;100.00
58955;BME280;45815;52.334;5.024;2024-03-07T04:27:01;102613.56;;;5.74;100.00
58955;BME280;45815;52.334;5.024;2024-03-07T04:29:30;102624.88;;;5.74;100.00
58955;BME280;45815;52.334;5.024;2024-03-07T04:31:55;102621.25;;;5.72;100.00
58955;BME280;45815;52.334;5.024;2024-03-07T04:34:21;102618.53;;;5.70;100.00
58955;BME280;45815;52.334;5.024;2024-03-07T04:36:46;102617.63;;;5.70;100.00
58955;BME280;45815;52.334;5.024;2024-03-07T04:39:12;102624.63;;;5.71;100.00
58955;BME280;45815;52.334;5.024;2024-03-07T04:41:52;102627.16;;;5.69;100.00
58955;BME280;45815;52.334;5.024;2024-03-07T04:44:19;102617.63;;;5.70;100.00
58955;BME280;45815;52.334;5.024;2024-03-07T04:46:48;102618.53;;;5.70;100.00
58955;BME280;45815;52.334;5.024;2024-03-07T04:49:15;102624.63;;;5.71;100.00
58955;BME280;45815;52.334;5.024;2024-03-07T04:51:40;102617.75;;;5.71;100.00
58955;BME280;45815;52.334;5.024;2024-03-07T04:54:06;102626.34;;;5.70;100.00
58955;BME280;45815;52.334;5.024;2024-03-07T04:56:31;102620.25;;;5.70;100.00
58955;BME280;45815;52.334;5.024;2024-03-07T04:58:57;102621.06;;;5.69;100.00
58955;BME280;45815;52.334;5.024;2024-03-07T05:01:22;102626.28;;;5.69;100.00
58955;BME280;45815;52.334;5.024;2024-03-07T05:03:48;102615.72;;;5.67;100.00
58955;BME280;45815;52.334;5.024;2024-03-07T05:06:13;102619.13;;;5.66;100.00
58955;BME280;45815;52.334;5.024;2024-03-07T05:08:41;102613.81;;;5.65;100.00
58955;BME280;45815;52.334;5.024;2024-03-07T05:11:07;102617.91;;;5.61;100.00
58955;BME280;45815;52.334;5.024;2024-03-07T05:13:32;102614.53;;;5.62;100.00
58955;BME280;45815;52.334;5.024;2024-03-07T05:15:57;102612.63;;;5.60;100.00
58955;BME280;45815;52.334;5.024;2024-03-07T05:18:23;102617.72;;;5.58;100.00
58955;BME280;45815;52.334;5.024;2024-03-07T05:20:49;102617.53;;;5.55;100.00
58955;BME280;45815;52.334;5.024;2024-03-07T05:23:14;102618.22;;;5.53;100.00
58955;BME280;45815;52.334;5.024;2024-03-07T05:25:40;102613.66;;;5.50;100.00
58955;BME280;45815;52.334;5.024;2024-03-07T05:28:05;102608.47;;;5.50;100.00
58955;BME280;45815;52.334;5.024;2024-03-07T05:30:31;102614.28;;;5.46;100.00
58955;BME280;45815;52.334;5.024;2024-03-07T05:32:57;102611.25;;;5.40;100.00
58955;BME280;45815;52.334;5.024;2024-03-07T05:35:24;102611.75;;;5.34;100.00
58955;BME280;45815;52.334;5.024;2024-03-07T05:37:49;102602.41;;;5.24;100.00
58955;BME280;45815;52.334;5.024;2024-03-07T05:40:16;102607.63;;;5.24;100.00
58955;BME280;45815;52.334;5.024;2024-03-07T05:42:41;102604.78;;;5.21;100.00
58955;BME280;45815;52.334;5.024;2024-03-07T05:45:07;102606.03;;;5.15;100.00
58955;BME280;45815;52.334;5.024;2024-03-07T05:47:35;102596.69;;;5.05;100.00
58955;BME280;45815;52.334;5.024;2024-03-07T05:50:01;102607.75;;;5.14;100.00
58955;BME280;45815;52.334;5.024;2024-03-07T05:52:26;102609.25;;;5.11;100.00
58955;BME280;45815;52.334;5.024;2024-03-07T05:54:52;102609.13;;;5.09;100.00
58955;BME280;45815;52.334;5.024;2024-03-07T05:57:18;102600.31;;;5.07;100.00
58955;BME280;45815;52.334;5.024;2024-03-07T05:59:43;102610.59;;;5.05;100.00
58955;BME280;45815;52.334;5.024;2024-03-07T06:02:10;102605.31;;;5.04;100.00
58955;BME280;45815;52.334;5.024;2024-03-07T06:04:37;102607.81;;;5.02;100.00
58955;BME280;45815;52.334;5.024;2024-03-07T06:07:03;102612.09;;;5.02;100.00
58955;BME280;45815;52.334;5.024;2024-03-07T06:09:29;102605.88;;;5.00;100.00
58955;BME280;45815;52.334;5.024;2024-03-07T06:11:54;102611.41;;;5.04;100.00
58955;BME280;45815;52.334;5.024;2024-03-07T06:14:20;102609.72;;;5.05;100.00
58955;BME280;45815;52.334;5.024;2024-03-07T06:16:45;102605.31;;;5.04;100.00
58955;BME280;45815;52.334;5.024;2024-03-07T06:19:11;102612.44;;;5.06;100.00
58955;BME280;45815;52.334;5.024;2024-03-07T06:21:38;102616.13;;;5.10;100.00
58955;BME280;45815;52.334;5.024;2024-03-07T06:24:06;102610.16;;;5.11;100.00
58955;BME280;45815;52.334;5.024;2024-03-07T06:26:35;102617.97;;;5.11;100.00
58955;BME280;45815;52.334;5.024;2024-03-07T06:29:09;102616.13;;;5.10;100.00
58955;BME280;45815;52.334;5.024;2024-03-07T06:31:37;102607.09;;;5.05;100.00
58955;BME280;45815;52.334;5.024;2024-03-07T06:34:03;102620.75;;;5.14;100.00
58955;BME280;45815;52.334;5.024;2024-03-07T06:36:28;102619.28;;;5.18;100.00
58955;BME280;45815;52.334;5.024;2024-03-07T06:38:54;102612.97;;;5.14;100.00
58955;BME280;45815;52.334;5.024;2024-03-07T06:41:20;102616.69;;;5.18;100.00
58955;BME280;45815;52.334;5.024;2024-03-07T06:43:45;102618.38;;;5.17;100.00
58955;BME280;45815;52.334;5.024;2024-03-07T06:46:11;102617.59;;;5.18;100.00
58955;BME280;45815;52.334;5.024;2024-03-07T06:48:38;102614.50;;;5.24;100.00
58955;BME280;45815;52.334;5.024;2024-03-07T06:51:05;102617.22;;;5.25;100.00
58955;BME280;45815;52.334;5.024;2024-03-07T06:53:31;102620.13;;;5.30;100.00
58955;BME280;45815;52.334;5.024;2024-03-07T06:55:57;102623.50;;;5.29;100.00
58955;BME280;45815;52.334;5.024;2024-03-07T06:58:22;102615.13;;;5.33;100.00
58955;BME280;45815;52.334;5.024;2024-03-07T07:00:48;102619.44;;;5.33;100.00
58955;BME280;45815;52.334;5.024;2024-03-07T07:03:17;102614.22;;;5.33;100.00
58955;BME280;45815;52.334;5.024;2024-03-07T07:05:44;102611.84;;;5.36;100.00
58955;BME280;45815;52.334;5.024;2024-03-07T07:08:10;102617.03;;;5.36;100.00
58955;BME280;45815;52.334;5.024;2024-03-07T07:10:36;102614.22;;;5.33;100.00
58955;BME280;45815;52.334;5.024;2024-03-07T07:13:02;102613.53;;;5.35;100.00
58955;BME280;45815;52.334;5.024;2024-03-07T07:15:29;102616.84;;;5.33;100.00
58955;BME280;45815;52.334;5.024;2024-03-07T07:17:55;102606.81;;;5.25;100.00
58955;BME280;45815;52.334;5.024;2024-03-07T07:20:20;102596.66;;;5.17;100.00
58955;BME280;45815;52.334;5.024;2024-03-07T07:22:47;102610.41;;;5.27;100.00
58955;BME280;45815;52.334;5.024;2024-03-07T07:25:13;102614.81;;;5.28;100.00
58955;BME280;45815;52.334;5.024;2024-03-07T07:27:49;102616.53;;;5.28;100.00
58955;BME280;45815;52.334;5.024;2024-03-07T07:30:16;102604.94;;;5.36;100.00
58955;BME280;45815;52.334;5.024;2024-03-07T07:32:42;102606.84;;;5.39;100.00
58955;BME280;45815;52.334;5.024;2024-03-07T07:35:09;102608.06;;;5.44;100.00
58955;BME280;45815;52.334;5.024;2024-03-07T07:37:49;102593.84;;;5.39;100.00
58955;BME280;45815;52.334;5.024;2024-03-07T07:40:18;102606.66;;;5.49;100.00
58955;BME280;45815;52.334;5.024;2024-03-07T07:42:44;102611.38;;;5.55;100.00
58955;BME280;45815;52.334;5.024;2024-03-07T07:45:13;102613.19;;;5.56;100.00
58955;BME280;45815;52.334;5.024;2024-03-07T07:47:39;102608.88;;;5.56;100.00
58955;BME280;45815;52.334;5.024;2024-03-07T07:50:12;102604.69;;;5.58;100.00
58955;BME280;45815;52.334;5.024;2024-03-07T07:52:48;102605.53;;;5.45;100.00
58955;BME280;45815;52.334;5.024;2024-03-07T07:55:18;102608.31;;;5.60;100.00
58955;BME280;45815;52.334;5.024;2024-03-07T07:57:45;102600.09;;;5.67;100.00
58955;BME280;45815;52.334;5.024;2024-03-07T08:00:15;102600.53;;;5.74;100.00
58955;BME280;45815;52.334;5.024;2024-03-07T08:02:55;102601.72;;;5.79;100.00
58955;BME280;45815;52.334;5.024;2024-03-07T08:05:22;102596.59;;;5.80;100.00
58955;BME280;45815;52.334;5.024;2024-03-07T08:07:51;102598.72;;;5.86;100.00
58955;BME280;45815;52.334;5.024;2024-03-07T08:10:18;102605.03;;;5.89;100.00
58955;BME280;45815;52.334;5.024;2024-03-07T08:12:44;102601.06;;;5.95;100.00
58955;BME280;45815;52.334;5.024;2024-03-07T08:15:11;102591.63;;;5.97;100.00
58955;BME280;45815;52.334;5.024;2024-03-07T08:17:45;102597.97;;;6.00;100.00
58955;BME280;45815;52.334;5.024;2024-03-07T08:20:11;102594.31;;;5.85;100.00
58955;BME280;45815;52.334;5.024;2024-03-07T08:22:40;102591.34;;;6.05;100.00
58955;BME280;45815;52.334;5.024;2024-03-07T08:27:35;102601.19;;;6.23;100.00
58955;BME280;45815;52.334;5.024;2024-03-07T08:30:02;102596.25;;;6.27;100.00
58955;BME280;45815;52.334;5.024;2024-03-07T08:32:27;102598.53;;;6.36;100.00
58955;BME280;45815;52.334;5.024;2024-03-07T08:34:53;102590.94;;;6.39;100.00
58955;BME280;45815;52.334;5.024;2024-03-07T08:37:18;102592.13;;;6.44;100.00
58955;BME280;45815;52.334;5.024;2024-03-07T08:39:44;102595.75;;;6.46;100.00
58955;BME280;45815;52.334;5.024;2024-03-07T08:42:09;102588.41;;;6.54;100.00
58955;BME280;45815;52.334;5.024;2024-03-07T08:44:34;102598.88;;;6.69;100.00
58955;BME280;45815;52.334;5.024;2024-03-07T08:47:00;102589.63;;;6.74;100.00
58955;BME280;45815;52.334;5.024;2024-03-07T08:49:25;102592.66;;;6.80;100.00
58955;BME280;45815;52.334;5.024;2024-03-07T08:51:51;102593.22;;;6.89;100.00
58955;BME280;45815;52.334;5.024;2024-03-07T08:54:16;102591.97;;;6.97;100.00
58955;BME280;45815;52.334;5.024;2024-03-07T08:56:41;102591.63;;;7.06;100.00
58955;BME280;45815;52.334;5.024;2024-03-07T08:59:07;102589.88;;;7.20;100.00
58955;BME280;45815;52.334;5.024;2024-03-07T09:01:32;102580.00;;;7.29;100.00
58955;BME280;45815;52.334;5.024;2024-03-07T09:03:59;102591.16;;;7.42;100.00
58955;BME280;45815;52.334;5.024;2024-03-07T09:06:24;102582.25;;;7.53;100.00
58955;BME280;45815;52.334;5.024;2024-03-07T09:08:50;102587.22;;;7.63;100.00
58955;BME280;45815;52.334;5.024;2024-03-07T09:11:15;102581.44;;;7.83;100.00
58955;BME280;45815;52.334;5.024;2024-03-07T09:13:41;102574.56;;;8.00;100.00
58955;BME280;45815;52.334;5.024;2024-03-07T09:16:07;102584.72;;;8.25;100.00
58955;BME280;45815;52.334;5.024;2024-03-07T09:18:32;102559.72;;;8.31;100.00
58955;BME280;45815;52.334;5.024;2024-03-07T09:20:58;102580.44;;;8.57;100.00
58955;BME280;45815;52.334;5.024;2024-03-07T09:23:23;102579.13;;;8.82;100.00
58955;BME280;45815;52.334;5.024;2024-03-07T09:25:48;102568.59;;;8.97;100.00
58955;BME280;45815;52.334;5.024;2024-03-07T09:28:14;102566.22;;;9.18;100.00
58955;BME280;45815;52.334;5.024;2024-03-07T09:30:40;102556.13;;;9.25;100.00
58955;BME280;45815;52.334;5.024;2024-03-07T09:33:06;102557.13;;;9.45;100.00
58955;BME280;45815;52.334;5.024;2024-03-07T09:35:36;102555.16;;;9.58;100.00
58955;BME280;45815;52.334;5.024;2024-03-07T09:38:02;102545.94;;;9.66;100.00
58955;BME280;45815;52.334;5.024;2024-03-07T09:40:28;102549.09;;;9.59;100.00
58955;BME280;45815;52.334;5.024;2024-03-07T09:42:54;102542.34;;;9.64;100.00
58955;BME280;45815;52.334;5.024;2024-03-07T09:45:23;102539.94;;;9.68;100.00
58955;BME280;45815;52.334;5.024;2024-03-07T09:47:53;102538.00;;;9.64;100.00
58955;BME280;45815;52.334;5.024;2024-03-07T09:50:19;102539.59;;;9.97;100.00
58955;BME280;45815;52.334;5.024;2024-03-07T09:52:48;102537.28;;;10.03;100.00
58955;BME280;45815;52.334;5.024;2024-03-07T09:55:15;102540.72;;;10.20;100.00
58955;BME280;45815;52.334;5.024;2024-03-07T09:57:41;102538.22;;;10.41;100.00
58955;BME280;45815;52.334;5.024;2024-03-07T10:00:08;102534.31;;;10.50;100.00
58955;BME280;45815;52.334;5.024;2024-03-07T10:02:39;102529.69;;;10.64;100.00
58955;BME280;45815;52.334;5.024;2024-03-07T10:05:07;102536.47;;;10.78;100.00
58955;BME280;45815;52.334;5.024;2024-03-07T10:07:35;102537.16;;;10.74;100.00
58955;BME280;45815;52.334;5.024;2024-03-07T10:10:01;102530.53;;;10.83;100.00
58955;BME280;45815;52.334;5.024;2024-03-07T10:12:35;102539.09;;;10.78;100.00
58955;BME280;45815;52.334;5.024;2024-03-07T10:15:03;102532.31;;;10.64;100.00
58955;BME280;45815;52.334;5.024;2024-03-07T10:17:30;102523.88;;;10.71;100.00
58955;BME280;45815;52.334;5.024;2024-03-07T10:19:58;102519.47;;;10.70;100.00
58955;BME280;45815;52.334;5.024;2024-03-07T10:22:26;102523.53;;;10.83;100.00
58955;BME280;45815;52.334;5.024;2024-03-07T10:24:52;102527.34;;;10.90;100.00
58955;BME280;45815;52.334;5.024;2024-03-07T10:27:22;102503.72;;;10.90;100.00
58955;BME280;45815;52.334;5.024;2024-03-07T10:29:48;102517.16;;;11.17;100.00
58955;BME280;45815;52.334;5.024;2024-03-07T10:32:19;102507.59;;;11.19;100.00
58955;BME280;45815;52.334;5.024;2024-03-07T10:34:45;102518.56;;;11.09;100.00
58955;BME280;45815;52.334;5.024;2024-03-07T10:37:12;102501.19;;;11.12;100.00
58955;BME280;45815;52.334;5.024;2024-03-07T10:39:44;102505.88;;;11.19;100.00
58955;BME280;45815;52.334;5.024;2024-03-07T10:42:13;102493.34;;;11.33;100.00
58955;BME280;45815;52.334;5.024;2024-03-07T10:44:44;102499.34;;;11.52;100.00
58955;BME280;45815;52.334;5.024;2024-03-07T10:47:19;102491.78;;;11.59;100.00
58955;BME280;45815;52.334;5.024;2024-03-07T10:55:40;102497.09;;;12.25;100.00
58955;BME280;45815;52.334;5.024;2024-03-07T11:01:13;102496.47;;;12.55;100.00
58955;BME280;45815;52.334;5.024;2024-03-07T11:03:39;102491.75;;;12.71;100.00
58955;BME280;45815;52.334;5.024;2024-03-07T11:06:07;102495.44;;;12.76;100.00
58955;BME280;45815;52.334;5.024;2024-03-07T11:08:37;102487.06;;;12.86;100.00
58955;BME280;45815;52.334;5.024;2024-03-07T11:11:03;102494.47;;;12.72;100.00
58955;BME280;45815;52.334;5.024;2024-03-07T11:13:30;102482.72;;;12.64;100.00
58955;BME280;45815;52.334;5.024;2024-03-07T11:15:56;102470.56;;;12.67;100.00
58955;BME280;45815;52.334;5.024;2024-03-07T11:18:24;102477.34;;;12.61;100.00
58955;BME280;45815;52.334;5.024;2024-03-07T11:20:49;102474.00;;;12.65;100.00
58955;BME280;45815;52.334;5.024;2024-03-07T11:23:32;102472.69;;;12.54;100.00
58955;BME280;45815;52.334;5.024;2024-03-07T11:26:09;102459.47;;;12.52;100.00
58955;BME280;45815;52.334;5.024;2024-03-07T11:28:39;102471.13;;;12.59;100.00
58955;BME280;45815;52.334;5.024;2024-03-07T11:33:40;102463.84;;;12.76;100.00
58955;BME280;45815;52.334;5.024;2024-03-07T11:36:10;102452.09;;;12.92;100.00
58955;BME280;45815;52.334;5.024;2024-03-07T11:38:38;102456.69;;;12.72;100.00
58955;BME280;45815;52.334;5.024;2024-03-07T11:41:03;102455.03;;;12.75;100.00
58955;BME280;45815;52.334;5.024;2024-03-07T11:43:33;102456.16;;;12.82;100.00
58955;BME280;45815;52.334;5.024;2024-03-07T11:45:59;102452.28;;;12.96;100.00
58955;BME280;45815;52.334;5.024;2024-03-07T11:48:25;102437.88;;;13.12;100.00
58955;BME280;45815;52.334;5.024;2024-03-07T11:50:50;102438.84;;;12.88;100.00
58955;BME280;45815;52.334;5.024;2024-03-07T11:53:16;102431.75;;;12.87;100.00
58955;BME280;45815;52.334;5.024;2024-03-07T11:55:43;102426.63;;;13.18;100.00
58955;BME280;45815;52.334;5.024;2024-03-07T11:58:17;102433.28;;;13.30;100.00
58955;BME280;45815;52.334;5.024;2024-03-07T12:00:47;102421.63;;;13.51;100.00
58955;BME280;45815;52.334;5.024;2024-03-07T12:03:16;102412.22;;;13.59;100.00
58955;BME280;45815;52.334;5.024;2024-03-07T12:05:51;102413.38;;;13.67;100.00
58955;BME280;45815;52.334;5.024;2024-03-07T12:08:16;102410.13;;;13.49;100.00
58955;BME280;45815;52.334;5.024;2024-03-07T12:10:43;102402.50;;;13.31;100.00
58955;BME280;45815;52.334;5.024;2024-03-07T12:13:12;102396.41;;;13.06;100.00
58955;BME280;45815;52.334;5.024;2024-03-07T12:15:40;102398.84;;;12.51;100.00
58955;BME280;45815;52.334;5.024;2024-03-07T12:18:06;102398.56;;;12.93;100.00
58955;BME280;45815;52.334;5.024;2024-03-07T12:20:36;102389.63;;;13.15;100.00
58955;BME280;45815;52.334;5.024;2024-03-07T12:23:03;102390.06;;;13.54;100.00
58955;BME280;45815;52.334;5.024;2024-03-07T12:25:31;102376.50;;;13.99;100.00
58955;BME280;45815;52.334;5.024;2024-03-07T12:28:07;102366.94;;;14.34;100.00
58955;BME280;45815;52.334;5.024;2024-03-07T12:30:53;102348.56;;;14.39;100.00
58955;BME280;45815;52.334;5.024;2024-03-07T12:33:20;102364.28;;;14.34;100.00
58955;BME280;45815;52.334;5.024;2024-03-07T12:35:51;102359.25;;;14.42;100.00
58955;BME280;45815;52.334;5.024;2024-03-07T12:38:21;102347.38;;;14.28;100.00
58955;BME280;45815;52.334;5.024;2024-03-07T12:41:01;102354.72;;;14.38;100.00
58955;BME280;45815;52.334;5.024;2024-03-07T12:43:31;102344.22;;;14.41;100.00
58955;BME280;45815;52.334;5.024;2024-03-07T12:45:57;102343.81;;;14.57;100.00
58955;BME280;45815;52.334;5.024;2024-03-07T12:48:24;102342.47;;;14.40;100.00
58955;BME280;45815;52.334;5.024;2024-03-07T12:50:51;102340.34;;;14.59;100.00
58955;BME280;45815;52.334;5.024;2024-03-07T12:53:22;102331.97;;;14.75;100.00
58955;BME280;45815;52.334;5.024;2024-03-07T12:55:49;102329.09;;;15.02;100.00
58955;BME280;45815;52.334;5.024;2024-03-07T12:58:14;102326.34;;;14.97;100.00
58955;BME280;45815;52.334;5.024;2024-03-07T13:00:41;102319.22;;;14.95;100.00